Time;durP1;ratioP1;P1;durP2;ratioP2;P2;SDS_P1;SDS_P2;PMS_P1;PMS_P2;Temp;Humidity;BMP_temperature;BMP_pressure;BME280_temperature;BME280_humidity;BME280_pressure;Samples;Min_cycle;Max_cycle;Signal;HPM_P1;HPM_P2
2022/08/28 00:01:58;;;;;;;23.70;13.80;;;;;;;21.06;78.17;98190.73;1639804;86;25683;-63
2022/08/28 00:04:25;;;;;;;21.77;14.50;;;;;;;21.01;78.32;98194.52;1639437;87;25702;-64
2022/08/28 00:06:51;;;;;;;19.82;14.28;;;;;;;20.97;78.54;98192.30;1639873;86;25675;-64
2022/08/28 00:09:17;;;;;;;19.52;13.72;;;;;;;21.01;78.63;98185.55;1639383;87;27361;-63
2022/08/28 00:11:44;;;;;;;20.88;15.18;;;;;;;21.03;78.42;98183.17;1639330;87;25500;-64
2022/08/28 00:14:11;;;;;;;21.27;15.32;;;;;;;20.96;78.64;98187.94;1638557;86;25609;-57
2022/08/28 00:16:43;;;;;;;21.12;15.35;;;;;;;20.88;78.97;98181.53;1634601;87;25813;-57
2022/08/28 00:19:11;;;;;;;21.45;15.50;;;;;;;20.80;79.07;98175.95;1648893;86;25502;-57
2022/08/28 00:21:43;;;;;;;18.27;14.43;;;;;;;20.86;79.24;98175.55;1625692;88;28182;-57
2022/08/28 00:24:17;;;;;;;20.62;14.83;;;;;;;20.94;79.07;98170.23;1625284;87;25397;-57
2022/08/28 00:29:40;;;;;;;16.67;12.85;;;;;;;21.00;78.76;98171.43;1625505;88;25680;-62
2022/08/28 00:32:13;;;;;;;17.27;12.78;;;;;;;20.98;78.62;98170.25;1625998;87;25423;-64
2022/08/28 00:34:46;;;;;;;19.80;13.18;;;;;;;20.98;78.61;98171.64;1625730;88;28277;-59
2022/08/28 00:37:14;;;;;;;18.20;13.80;;;;;;;20.94;78.37;98175.80;1625401;87;25593;-59
2022/08/28 00:39:40;;;;;;;20.57;13.53;;;;;;;20.84;78.48;98175.16;1625615;88;25698;-59
2022/08/28 00:42:06;;;;;;;17.23;13.28;;;;;;;20.79;78.85;98168.00;1625903;87;25692;-58
2022/08/28 00:44:33;;;;;;;18.25;13.38;;;;;;;20.84;78.75;98179.34;1625930;88;25600;-58
2022/08/28 00:46:59;;;;;;;18.20;13.45;;;;;;;20.88;78.63;98176.77;1625727;87;27481;-58
2022/08/28 00:49:34;;;;;;;17.42;13.55;;;;;;;20.86;78.61;98181.92;1625836;87;25611;-58
2022/08/28 00:52:06;;;;;;;16.12;13.50;;;;;;;20.81;78.52;98181.72;1625582;88;25688;-58
2022/08/28 00:54:44;;;;;;;16.52;12.28;;;;;;;20.79;78.67;98183.31;1625487;88;25608;-58
2022/08/28 00:57:18;;;;;;;17.32;12.65;;;;;;;20.77;78.57;98186.48;1616192;88;25744;-58
2022/08/28 00:59:45;;;;;;;16.48;12.23;;;;;;;20.72;78.59;98188.88;1625971;87;27392;-58
2022/08/28 01:02:11;;;;;;;16.23;12.20;;;;;;;20.69;78.49;98190.44;1625953;87;25659;-58
2022/08/28 01:04:38;;;;;;;16.12;12.45;;;;;;;20.64;78.51;98186.66;1625743;87;25731;-59
2022/08/28 01:07:09;;;;;;;18.05;12.55;;;;;;;20.57;78.59;98183.25;1625444;88;25763;-60
2022/08/28 01:09:40;;;;;;;21.02;12.78;;;;;;;20.52;78.59;98183.04;1625759;87;25616;-59
2022/08/28 01:12:12;;;;;;;18.82;13.75;;;;;;;20.41;78.87;98183.00;1625754;87;28190;-59
2022/08/28 01:14:40;;;;;;;18.77;13.43;;;;;;;20.38;79.17;98180.22;1626143;87;26260;-57
2022/08/28 01:17:08;;;;;;;17.48;12.37;;;;;;;20.40;79.29;98180.61;1630895;87;25696;-58
2022/08/28 01:19:42;;;;;;;19.45;13.40;;;;;;;20.42;79.20;98173.48;1630487;86;26753;-58
2022/08/28 01:22:14;;;;;;;21.85;14.00;;;;;;;20.43;79.36;98175.06;1635816;87;25674;-58
2022/08/28 01:24:43;;;;;;;16.67;13.30;;;;;;;20.41;79.63;98179.44;1656483;86;27775;-58
2022/08/28 01:27:10;;;;;;;18.10;13.08;;;;;;;20.40;79.71;98180.61;1656635;86;25778;-58
2022/08/28 01:29:37;;;;;;;20.60;14.28;;;;;;;20.37;79.30;98182.20;1656794;85;25429;-58
2022/08/28 01:32:05;;;;;;;19.27;13.83;;;;;;;20.28;79.69;98183.96;1656546;85;26018;-58
2022/08/28 01:34:32;;;;;;;20.85;13.55;;;;;;;20.29;79.84;98186.94;1656633;86;25648;-58
2022/08/28 01:36:59;;;;;;;16.35;13.45;;;;;;;20.32;79.80;98186.73;1656543;86;27532;-58
2022/08/28 01:39:26;;;;;;;18.40;13.55;;;;;;;20.35;79.69;98194.92;1656526;86;25687;-58
2022/08/28 01:41:54;;;;;;;16.65;13.18;;;;;;;20.39;79.80;98188.18;1656532;85;25709;-58
2022/08/28 01:44:24;;;;;;;16.40;12.55;;;;;;;20.43;79.72;98188.17;1656464;86;26553;-58
2022/08/28 01:46:55;;;;;;;17.55;12.78;;;;;;;20.43;79.65;98189.56;1656791;86;25489;-58
2022/08/28 01:49:23;;;;;;;18.90;12.10;;;;;;;20.42;79.69;98189.38;1656592;86;27316;-58
2022/08/28 01:51:49;;;;;;;17.82;12.37;;;;;;;20.40;79.87;98198.70;1656624;86;25707;-58
2022/08/28 01:54:16;;;;;;;15.88;11.85;;;;;;;20.41;79.99;98210.83;1656493;86;25470;-58
2022/08/28 01:56:43;;;;;;;18.50;12.68;;;;;;;20.38;80.01;98208.05;1657108;86;26003;-58
2022/08/28 01:59:13;;;;;;;17.75;11.65;;;;;;;20.34;80.24;98205.23;1656671;85;25596;-58
2022/08/28 02:01:42;;;;;;;18.15;12.35;;;;;;;20.28;80.47;98206.22;1656603;86;27443;-58
2022/08/28 02:04:08;;;;;;;17.57;12.18;;;;;;;20.25;80.78;98211.75;1656068;86;25457;-58
2022/08/28 02:06:36;;;;;;;14.98;11.40;;;;;;;20.18;81.16;98206.97;1656599;86;25666;-58
2022/08/28 02:09:05;;;;;;;17.62;12.43;;;;;;;20.11;81.96;98212.48;1656254;85;26529;-59
2022/08/28 02:11:32;;;;;;;15.10;11.70;;;;;;;20.02;81.96;98209.47;1656518;86;25481;-58
2022/08/28 02:14:00;;;;;;;15.18;11.20;;;;;;;20.03;82.24;98210.25;1656437;86;27337;-58
2022/08/28 02:16:27;;;;;;;15.40;10.93;;;;;;;19.97;82.29;98200.68;1650065;86;25730;-58
2022/08/28 02:18:54;;;;;;;14.63;10.82;;;;;;;19.94;82.04;98205.82;1649357;87;25477;-58
2022/08/28 02:21:20;;;;;;;14.33;10.55;;;;;;;19.92;81.91;98204.02;1649417;87;25596;-58
2022/08/28 02:23:47;;;;;;;19.52;13.30;;;;;;;19.92;81.98;98199.84;1649413;87;25423;-58
2022/08/28 02:26:14;;;;;;;18.55;11.50;;;;;;;19.97;82.07;98202.07;1649641;87;27628;-58
2022/08/28 02:28:41;;;;;;;14.60;10.10;;;;;;;19.98;81.98;98199.48;1649296;86;25443;-64
2022/08/28 02:31:09;;;;;;;14.30;10.28;;;;;;;19.94;81.72;98193.31;1630614;87;25476;-63
2022/08/28 02:33:38;;;;;;;17.30;11.40;;;;;;;19.85;82.12;98190.08;1649409;87;25724;-65
2022/08/28 02:36:09;;;;;;;16.30;11.85;;;;;;;19.81;82.32;98191.43;1649449;86;25465;-65
2022/08/28 02:38:37;;;;;;;14.28;10.75;;;;;;;19.88;82.27;98200.42;1649358;86;27451;-65
2022/08/28 02:41:05;;;;;;;12.65;10.28;;;;;;;19.91;82.32;98202.42;1649359;87;26013;-62
2022/08/28 02:43:31;;;;;;;24.82;16.23;;;;;;;19.90;82.28;98206.41;1649103;87;25453;-58
2022/08/28 02:45:57;;;;;;;18.05;11.75;;;;;;;19.88;82.51;98210.16;1649060;87;25742;-58
2022/08/28 02:48:30;;;;;;;24.72;13.45;;;;;;;19.87;82.56;98214.71;1649408;86;25656;-58
2022/08/28 02:51:01;;;;;;;16.02;10.63;;;;;;;19.84;82.73;98212.13;1649359;87;27641;-59
2022/08/28 02:53:29;;;;;;;23.47;13.00;;;;;;;19.83;82.71;98212.51;1648980;86;25648;-58
2022/08/28 02:55:56;;;;;;;15.75;10.10;;;;;;;19.82;82.72;98210.31;1649432;86;25714;-58
2022/08/28 02:58:25;;;;;;;13.95;10.03;;;;;;;19.81;82.78;98206.72;1649409;87;25581;-58
2022/08/28 03:00:53;;;;;;;14.98;10.18;;;;;;;19.83;82.47;98210.50;1649153;87;25449;-58
2022/08/28 03:03:19;;;;;;;12.78;9.93;;;;;;;19.76;82.68;98210.47;1649071;86;27408;-58
2022/08/28 03:05:46;;;;;;;13.95;10.20;;;;;;;19.76;82.77;98202.94;1649353;86;25490;-58
2022/08/28 03:08:12;;;;;;;13.90;10.15;;;;;;;19.85;82.76;98191.47;1649508;86;25530;-59
2022/08/28 03:10:38;;;;;;;13.28;10.10;;;;;;;19.83;82.71;98181.92;1649361;86;26561;-58
2022/08/28 03:13:05;;;;;;;14.05;10.32;;;;;;;19.71;82.78;98181.05;1649473;86;25434;-58
2022/08/28 03:15:31;;;;;;;14.45;10.15;;;;;;;19.70;83.06;98189.20;1648554;86;27603;-58
2022/08/28 03:17:57;;;;;;;15.20;10.48;;;;;;;19.77;82.88;98192.59;1647217;87;25672;-58
2022/08/28 03:20:29;;;;;;;17.90;10.88;;;;;;;19.86;82.97;98205.56;1647211;87;25542;-58
2022/08/28 03:25:50;;;;;;;15.13;10.68;;;;;;;19.94;82.43;98208.60;1646923;87;25435;-58
2022/08/28 03:28:22;;;;;;;17.57;10.90;;;;;;;19.93;82.47;98213.97;1647081;86;26043;-58
2022/08/28 03:30:54;;;;;;;15.88;11.25;;;;;;;19.88;82.70;98217.11;1647209;87;25902;-58
2022/08/28 03:33:26;;;;;;;20.95;12.73;;;;;;;19.83;82.85;98222.24;1647479;87;25742;-65
2022/08/28 03:35:54;;;;;;;18.17;11.30;;;;;;;19.78;82.93;98228.34;1647274;86;25744;-65
2022/08/28 03:38:21;;;;;;;17.50;10.13;;;;;;;19.77;83.38;98235.69;1647011;86;25687;-62
2022/08/28 03:40:47;;;;;;;15.32;11.20;;;;;;;19.73;83.75;98237.65;1647208;87;28459;-65
2022/08/28 03:43:18;;;;;;;18.48;11.68;;;;;;;19.68;83.75;98240.20;1647269;87;25671;-58
2022/08/28 03:46:03;;;;;;;19.55;12.93;;;;;;;19.68;83.80;98245.75;1647502;87;25420;-58
2022/08/28 03:48:35;;;;;;;13.53;9.35;;;;;;;19.62;84.03;98241.73;1647180;86;25783;-58
2022/08/28 03:51:08;;;;;;;15.68;10.03;;;;;;;19.55;84.45;98245.27;1647407;87;25643;-58
2022/08/28 03:53:34;;;;;;;13.75;9.40;;;;;;;19.56;84.18;98242.11;1647098;87;27637;-58
2022/08/28 03:56:01;;;;;;;15.93;9.75;;;;;;;19.56;84.11;98242.11;1647018;87;25922;-58
2022/08/28 03:58:28;;;;;;;13.13;9.48;;;;;;;19.56;84.07;98241.30;1628375;87;25702;-58
2022/08/28 04:00:54;;;;;;;15.68;11.30;;;;;;;19.58;84.00;98240.92;1646854;86;27847;-58
2022/08/28 04:03:21;;;;;;;13.88;9.80;;;;;;;19.60;84.00;98247.68;1647004;87;25620;-58
2022/08/28 04:05:47;;;;;;;15.03;10.50;;;;;;;19.65;83.90;98251.50;1646985;86;29650;-59
2022/08/28 04:08:15;;;;;;;24.92;12.68;;;;;;;19.70;83.76;98257.30;1647048;87;25830;-58
2022/08/28 04:10:44;;;;;;;15.65;10.95;;;;;;;19.69;83.95;98254.32;1647168;86;25526;-59
2022/08/28 04:13:11;;;;;;;23.18;12.50;;;;;;;19.69;83.98;98257.09;1646945;86;25711;-58
2022/08/28 04:15:38;;;;;;;15.95;9.68;;;;;;;19.67;84.06;98260.84;1649243;86;25775;-59
2022/08/28 04:18:04;;;;;;;14.93;9.95;;;;;;;19.63;84.27;98258.64;1656633;86;27847;-59
2022/08/28 04:20:30;;;;;;;12.93;8.95;;;;;;;19.59;84.32;98260.57;1656076;85;25691;-58
2022/08/28 04:22:56;;;;;;;12.95;9.35;;;;;;;19.55;84.82;98268.28;1656140;86;25688;-60
2022/08/28 04:25:22;;;;;;;14.85;9.08;;;;;;;19.47;85.30;98273.59;1656459;85;26535;-58
2022/08/28 04:27:50;;;;;;;13.75;8.83;;;;;;;19.43;85.19;98267.99;1656530;86;25781;-58
2022/08/28 04:30:17;;;;;;;13.30;8.88;;;;;;;19.43;85.22;98267.99;1656191;86;27611;-58
2022/08/28 04:32:44;;;;;;;14.47;9.55;;;;;;;19.39;85.29;98269.14;1656386;86;25654;-59
2022/08/28 04:35:11;;;;;;;15.65;9.88;;;;;;;19.36;85.70;98266.55;1656324;86;25961;-58
2022/08/28 04:37:39;;;;;;;13.90;8.53;;;;;;;19.35;85.40;98271.91;1656560;86;25679;-59
2022/08/28 04:40:09;;;;;;;11.90;9.33;;;;;;;19.38;85.50;98271.14;1656416;86;25474;-59
2022/08/28 04:42:38;;;;;;;13.18;9.28;;;;;;;19.35;85.51;98266.92;1656725;86;28103;-58
2022/08/28 04:45:07;;;;;;;12.95;8.50;;;;;;;19.38;85.53;98270.33;1656073;85;25612;-58
2022/08/28 04:47:37;;;;;;;11.33;8.70;;;;;;;19.43;85.84;98267.22;1656276;86;25685;-58
2022/08/28 04:50:06;;;;;;;14.75;9.55;;;;;;;19.49;85.20;98260.09;1656369;85;26643;-58
2022/08/28 04:52:33;;;;;;;14.10;8.53;;;;;;;19.59;84.95;98260.57;1656686;85;25470;-58
2022/08/28 04:54:59;;;;;;;13.50;9.35;;;;;;;19.70;84.79;98257.30;1656744;86;27436;-65
2022/08/28 04:57:25;;;;;;;12.47;9.05;;;;;;;19.80;84.84;98257.96;1656204;86;25830;-64
2022/08/28 04:59:52;;;;;;;18.57;9.38;;;;;;;19.95;84.65;98256.69;1656489;85;25735;-58
2022/08/28 05:02:18;;;;;;;13.38;9.45;;;;;;;20.13;84.70;98258.21;1656276;86;25793;-58
2022/08/28 05:04:44;;;;;;;13.95;9.45;;;;;;;20.29;84.02;98258.47;1656372;86;25616;-58
2022/08/28 05:07:10;;;;;;;14.93;8.38;;;;;;;20.39;83.62;98264.70;1656290;86;27408;-58
2022/08/28 05:09:36;;;;;;;14.43;9.40;;;;;;;20.49;83.16;98269.32;1656557;86;25883;-58
2022/08/28 05:12:05;;;;;;;17.40;9.68;;;;;;;20.54;83.45;98261.39;1656264;86;25646;-58
2022/08/28 05:14:31;;;;;;;14.07;9.78;;;;;;;20.65;83.38;98254.47;1656249;86;25737;-59
2022/08/28 05:16:58;;;;;;;13.00;9.70;;;;;;;20.81;83.56;98255.50;1650266;85;25588;-65
2022/08/28 05:19:27;;;;;;;14.98;10.03;;;;;;;20.99;83.21;98252.02;1647318;86;27428;-65
2022/08/28 05:21:53;;;;;;;17.10;10.40;;;;;;;21.16;82.87;98258.79;1647181;87;25490;-65
2022/08/28 05:24:21;;;;;;;16.55;10.00;;;;;;;21.29;82.67;98256.43;1646994;86;25463;-63
2022/08/28 05:26:47;;;;;;;14.13;9.55;;;;;;;21.35;82.64;98244.88;1647275;86;26603;-62
2022/08/28 05:29:13;;;;;;;13.90;10.15;;;;;;;21.33;82.90;98247.28;1647336;87;25658;-65
2022/08/28 05:31:40;;;;;;;14.10;10.05;;;;;;;21.42;82.41;98249.86;1646947;87;29643;-63
2022/08/28 05:34:08;;;;;;;15.40;10.82;;;;;;;21.56;82.30;98248.29;1647220;87;25451;-64
2022/08/28 05:36:37;;;;;;;15.38;10.70;;;;;;;21.67;81.76;98248.26;1647191;86;25490;-64
2022/08/28 05:39:08;;;;;;;15.83;10.95;;;;;;;21.79;81.68;98242.92;1647231;87;25836;-64
2022/08/28 05:41:36;;;;;;;16.17;10.90;;;;;;;21.78;81.39;98236.54;1647010;86;25692;-64
2022/08/28 05:44:06;;;;;;;18.25;11.43;;;;;;;21.74;81.94;98232.13;1647234;87;27418;-64
2022/08/28 05:46:36;;;;;;;16.65;11.20;;;;;;;21.79;81.66;98238.13;1647154;86;25636;-65
2022/08/28 05:49:03;;;;;;;18.43;11.93;;;;;;;21.91;81.51;98242.48;1647271;87;25730;-65
2022/08/28 05:51:30;;;;;;;17.32;11.63;;;;;;;22.12;80.69;98247.83;1647319;86;25773;-61
2022/08/28 05:53:57;;;;;;;15.85;11.20;;;;;;;22.20;80.23;98241.64;1647294;86;25474;-59
2022/08/28 05:56:28;;;;;;;20.15;11.85;;;;;;;22.26;80.24;98234.45;1647302;87;28366;-63
2022/08/28 05:58:56;;;;;;;15.70;10.45;;;;;;;22.40;79.73;98238.38;1647150;87;25698;-58
2022/08/28 06:01:27;;;;;;;14.58;11.12;;;;;;;22.49;79.35;98244.33;1646990;87;25700;-58
2022/08/28 06:04:06;;;;;;;14.50;11.28;;;;;;;22.56;79.54;98242.09;1647280;87;25890;-58
2022/08/28 06:06:34;;;;;;;15.93;11.05;;;;;;;22.64;78.98;98246.48;1647395;87;25684;-59
2022/08/28 06:09:05;;;;;;;16.12;11.90;;;;;;;22.69;78.68;98246.66;1647355;86;27383;-58
2022/08/28 06:11:33;;;;;;;18.42;12.05;;;;;;;22.75;78.39;98244.23;1647150;86;25450;-58
2022/08/28 06:14:00;;;;;;;19.52;13.45;;;;;;;22.78;78.79;98244.22;1647256;87;25823;-58
2022/08/28 06:16:28;;;;;;;20.05;13.50;;;;;;;22.82;78.05;98245.58;1647114;86;26410;-58
2022/08/28 06:18:56;;;;;;;17.85;13.72;;;;;;;22.83;78.73;98238.01;1647153;87;25473;-58
2022/08/28 06:21:23;;;;;;;20.37;13.70;;;;;;;22.86;77.94;98246.38;1647179;87;27577;-59
2022/08/28 06:23:50;;;;;;;18.05;13.20;;;;;;;22.89;78.04;98247.55;1647293;87;25659;-58
2022/08/28 06:26:17;;;;;;;18.98;13.55;;;;;;;22.96;78.04;98245.30;1647068;87;25667;-59
2022/08/28 06:28:43;;;;;;;16.25;12.75;;;;;;;23.09;78.21;98243.64;1646883;87;25763;-59
2022/08/28 06:31:09;;;;;;;19.02;13.20;;;;;;;23.25;78.23;98238.13;1646999;87;25679;-63
2022/08/28 06:33:35;;;;;;;17.48;12.43;;;;;;;23.49;77.38;98241.19;1647462;87;27429;-65
2022/08/28 06:36:04;;;;;;;15.55;12.95;;;;;;;23.54;76.33;98248.52;1646871;87;25631;-61
2022/08/28 06:38:31;;;;;;;16.23;13.22;;;;;;;23.56;76.12;98253.11;1647329;87;25648;-65
2022/08/28 06:40:58;;;;;;;18.60;14.10;;;;;;;23.63;76.20;98250.84;1646894;86;25755;-64
2022/08/28 06:43:28;;;;;;;19.42;13.48;;;;;;;23.67;75.70;98255.81;1646984;86;25726;-65
2022/08/28 06:45:56;;;;;;;18.40;12.82;;;;;;;23.83;75.79;98253.05;1647241;87;26902;-65
2022/08/28 06:48:26;;;;;;;18.00;12.20;;;;;;;23.88;75.12;98251.22;1647214;87;25789;-63
2022/08/28 06:50:53;;;;;;;;;;;;;;;23.85;74.06;98251.24;1649720;86;25542;-59
2022/08/28 06:53:23;;;;;;;18.48;12.45;;;;;;;23.73;74.04;98251.96;1647441;86;25786;-58
2022/08/28 06:56:18;;;;;;;16.70;12.65;;;;;;;23.66;73.95;98254.20;1646912;87;25687;-58
2022/08/28 06:58:46;;;;;;;16.17;11.90;;;;;;;23.86;74.98;98258.45;1647017;87;25949;-58
2022/08/28 07:01:24;;;;;;;16.90;12.90;;;;;;;24.31;74.93;98259.00;1647140;87;25723;-59
2022/08/28 07:03:53;;;;;;;15.63;12.90;;;;;;;24.52;74.16;98265.58;1646992;87;25704;-60
2022/08/28 07:06:21;;;;;;;18.55;13.30;;;;;;;24.64;73.83;98259.39;1647203;87;25790;-59
2022/08/28 07:08:47;;;;;;;18.23;14.03;;;;;;;24.79;72.72;98261.43;1644864;85;25658;-58
2022/08/28 07:11:21;;;;;;;19.17;14.13;;;;;;;24.89;72.76;98259.71;1645964;86;29514;-58
2022/08/28 07:13:48;;;;;;;19.10;13.55;;;;;;;24.73;71.15;98260.91;1646524;86;25676;-59
2022/08/28 07:16:18;;;;;;;17.65;13.05;;;;;;;24.52;72.12;98259.34;1623677;86;25724;-59
2022/08/28 07:18:46;;;;;;;17.15;13.03;;;;;;;24.54;72.48;98268.14;1623389;88;26481;-59
2022/08/28 07:21:13;;;;;;;15.78;12.00;;;;;;;24.53;73.12;98273.53;1623458;88;25768;-61
2022/08/28 07:23:41;;;;;;;18.00;12.78;;;;;;;24.61;71.05;98270.03;1624106;88;27469;-59
2022/08/28 07:26:12;;;;;;;16.97;12.43;;;;;;;24.62;71.09;98266.64;1624464;88;25765;-59
2022/08/28 07:28:39;;;;;;;15.05;12.65;;;;;;;24.60;71.57;98267.66;1623658;88;25459;-59
2022/08/28 07:31:12;;;;;;;18.30;12.90;;;;;;;24.73;71.33;98272.91;1624423;88;25805;-60
2022/08/28 07:33:40;;;;;;;16.57;12.13;;;;;;;24.74;71.68;98268.89;1624304;88;25675;-59
2022/08/28 07:36:10;;;;;;;16.30;12.63;;;;;;;24.88;71.88;98266.54;1624332;88;28356;-58
2022/08/28 07:38:37;;;;;;;18.07;13.93;;;;;;;24.90;71.81;98264.09;1624271;88;25692;-58
2022/08/28 07:41:14;;;;;;;14.95;13.15;;;;;;;24.98;71.41;98264.78;1624616;88;25616;-64
2022/08/28 07:46:28;;;;;;;16.93;12.93;;;;;;;25.01;70.37;98262.55;1624101;88;25613;-65
2022/08/28 07:48:57;;;;;;;17.98;13.48;;;;;;;25.03;71.09;98267.12;1624110;88;28391;-64
2022/08/28 07:51:23;;;;;;;16.30;12.18;;;;;;;25.01;70.33;98259.73;1623772;88;25467;-61
2022/08/28 07:53:49;;;;;;;17.30;13.10;;;;;;;25.04;71.04;98267.30;1624086;88;25474;-63
2022/08/28 07:56:15;;;;;;;17.17;13.22;;;;;;;25.14;70.27;98267.58;1624530;88;25904;-64
2022/08/28 07:58:41;;;;;;;19.90;14.53;;;;;;;25.19;69.47;98269.91;1624215;88;25448;-61
2022/08/28 08:01:08;;;;;;;16.87;13.78;;;;;;;25.26;70.85;98268.40;1624614;88;27455;-65
2022/08/28 08:03:34;;;;;;;20.05;14.10;;;;;;;25.38;69.29;98268.41;1624097;88;25632;-66
2022/08/28 08:06:03;;;;;;;21.65;14.60;;;;;;;25.46;70.09;98266.89;1624125;88;25665;-62
2022/08/28 08:08:33;;;;;;;20.17;14.03;;;;;;;25.60;70.31;98267.27;1624553;88;26469;-65
2022/08/28 08:11:07;;;;;;;17.15;14.98;;;;;;;25.58;69.90;98269.73;1624531;88;25593;-59
2022/08/28 08:13:35;;;;;;;17.57;13.55;;;;;;;25.75;70.03;98270.05;1624398;88;27541;-63
2022/08/28 08:16:19;;;;;;;17.15;14.45;;;;;;;26.02;68.67;98269.80;1624244;88;25732;-66
2022/08/28 08:18:47;;;;;;;16.75;13.83;;;;;;;26.25;68.82;98269.58;1605315;88;25685;-66
2022/08/28 08:21:17;;;;;;;14.87;12.13;;;;;;;26.49;67.41;98276.55;1603377;89;26609;-62
2022/08/28 08:23:43;;;;;;;15.15;12.37;;;;;;;26.70;66.94;98275.31;1604005;89;25525;-65
2022/08/28 08:26:15;;;;;;;16.00;12.53;;;;;;;26.85;66.18;98268.77;1603714;88;27900;-59
2022/08/28 08:28:43;;;;;;;13.65;11.97;;;;;;;26.90;66.21;98277.30;1603665;89;25638;-59
2022/08/28 08:31:20;;;;;;;14.40;12.20;;;;;;;27.05;65.85;98272.18;1603937;89;25706;-60
2022/08/28 08:33:50;;;;;;;13.58;12.00;;;;;;;27.20;66.01;98272.64;1603293;89;25707;-58
2022/08/28 08:36:21;;;;;;;15.38;11.75;;;;;;;27.38;65.59;98277.87;1603664;88;25523;-60
2022/08/28 08:38:48;;;;;;;13.98;11.97;;;;;;;27.55;64.78;98275.06;1604012;88;28019;-59
2022/08/28 08:41:29;;;;;;;14.03;12.18;;;;;;;27.69;64.46;98279.58;1603490;89;25523;-59
2022/08/28 08:44:24;;;;;;;17.90;12.65;;;;;;;27.72;63.72;98279.30;1602287;88;25873;-59
2022/08/28 08:47:26;;;;;;;13.48;11.97;;;;;;;27.70;64.47;98278.94;1603820;89;25537;-59
2022/08/28 08:50:19;;;;;;;14.23;11.90;;;;;;;27.87;63.33;98280.53;1603615;88;25525;-59
2022/08/28 08:53:16;;;;;;;16.30;12.47;;;;;;;28.08;63.17;98282.59;1603899;89;27395;-58
2022/08/28 08:55:49;;;;;;;13.95;12.18;;;;;;;28.28;63.59;98276.83;1603810;88;25707;-58
2022/08/28 08:58:35;;;;;;;14.38;12.18;;;;;;;28.52;62.03;98285.67;1602986;89;25633;-58
2022/08/28 09:01:37;;;;;;;16.57;12.45;;;;;;;28.71;61.00;98287.34;1603580;88;27757;-58
2022/08/28 09:04:21;;;;;;;14.00;12.25;;;;;;;28.74;60.50;98285.03;1603674;89;25521;-58
2022/08/28 09:07:01;;;;;;;14.10;12.40;;;;;;;28.79;60.51;98290.12;1603723;88;27463;-58
2022/08/28 09:09:52;;;;;;;14.93;12.33;;;;;;;28.85;60.57;98294.59;1603948;88;25678;-59
2022/08/28 09:12:23;;;;;;;14.63;11.93;;;;;;;29.01;59.98;98295.16;1603425;89;25504;-59
2022/08/28 09:15:13;;;;;;;13.90;12.50;;;;;;;29.27;59.77;98290.95;1603495;88;25802;-57
2022/08/28 09:17:52;;;;;;;;;;;;;;;29.41;59.38;98291.09;1604016;87;25451;-62
2022/08/28 09:20:28;;;;;;;18.00;13.22;;;;;;;29.61;59.37;98292.90;1597543;89;28035;-64
2022/08/28 09:22:55;;;;;;;15.03;12.60;;;;;;;29.82;58.79;98301.30;1597407;89;25648;-58
2022/08/28 09:25:55;;;;;;;14.43;11.97;;;;;;;29.78;58.16;98300.00;1597322;89;25548;-63
2022/08/28 09:28:35;;;;;;;14.10;12.55;;;;;;;29.71;57.57;98295.22;1597350;89;25638;-60
2022/08/28 09:31:14;;;;;;;18.37;13.65;;;;;;;29.68;58.50;98300.52;1597288;89;25702;-62
2022/08/28 09:33:50;;;;;;;14.30;12.40;;;;;;;29.61;58.14;98302.78;1597178;89;27822;-62
2022/08/28 09:36:30;;;;;;;13.13;11.48;;;;;;;29.71;56.39;98298.84;1597119;89;25685;-64
2022/08/28 09:39:20;;;;;;;13.30;11.90;;;;;;;29.88;57.35;98300.87;1596818;89;25690;-63
2022/08/28 09:44:59;;;;;;;13.20;10.55;;;;;;;29.96;56.43;98307.06;1597126;89;25660;-61
2022/08/28 09:47:47;;;;;;;11.83;10.63;;;;;;;30.11;56.14;98303.15;1597401;89;28446;-58
2022/08/28 09:50:34;;;;;;;11.60;10.00;;;;;;;30.20;55.63;98303.08;1597187;89;25699;-58
2022/08/28 09:53:14;;;;;;;12.47;11.18;;;;;;;30.19;55.44;98302.28;1597395;89;25552;-57
2022/08/28 09:56:14;;;;;;;11.57;10.48;;;;;;;30.15;55.16;98301.59;1595558;89;26704;-57
2022/08/28 09:58:51;;;;;;;10.50;9.40;;;;;;;29.72;55.80;98297.58;1597373;89;25655;-58
2022/08/28 10:01:43;;;;;;;11.43;8.70;;;;;;;29.47;55.24;98301.20;1597081;89;27346;-57
2022/08/28 10:04:46;;;;;;;9.98;8.75;;;;;;;29.59;54.12;98303.88;1597073;89;25622;-57
2022/08/28 10:07:47;;;;;;;10.10;9.10;;;;;;;29.66;54.97;98309.28;1597226;89;25532;-58
2022/08/28 10:10:42;;;;;;;10.82;9.43;;;;;;;29.74;54.10;98307.81;1597181;89;25907;-58
2022/08/28 10:13:32;;;;;;;11.15;9.03;;;;;;;29.91;54.19;98299.95;1596630;89;25789;-58
2022/08/28 10:16:31;;;;;;;11.00;9.65;;;;;;;30.08;53.53;98305.47;1597186;89;27515;-57
2022/08/28 10:19:27;;;;;;;10.18;8.93;;;;;;;30.34;53.93;98302.58;1584310;87;25528;-57
2022/08/28 10:22:05;;;;;;;10.68;8.65;;;;;;;30.39;53.24;98309.69;1596887;89;25483;-57
2022/08/28 10:24:45;;;;;;;10.10;9.00;;;;;;;30.41;54.10;98306.55;1596967;89;27806;-58
2022/08/28 10:27:33;;;;;;;11.15;8.40;;;;;;;30.33;53.74;98305.86;1597058;89;25687;-58
2022/08/28 10:30:06;;;;;;;10.75;8.35;;;;;;;29.95;52.98;98307.52;1594844;89;27592;-65
2022/08/28 10:33:01;;;;;;;8.58;7.70;;;;;;;29.96;53.72;98300.64;1597395;89;25941;-58
2022/08/28 10:35:47;;;;;;;10.30;8.45;;;;;;;29.99;52.44;98302.56;1597086;89;25644;-58
2022/08/28 10:38:31;;;;;;;11.63;8.90;;;;;;;29.81;53.40;98303.94;1596948;89;25794;-58
2022/08/28 10:41:23;;;;;;;9.80;8.28;;;;;;;29.79;54.27;98302.21;1596924;89;25488;-64
2022/08/28 10:43:53;;;;;;;10.98;9.45;;;;;;;29.75;53.91;98295.88;1596759;89;27518;-57
2022/08/28 10:46:29;;;;;;;10.80;9.70;;;;;;;29.74;54.95;98302.78;1596901;89;25868;-60
2022/08/28 10:49:22;;;;;;;10.72;9.35;;;;;;;29.57;54.33;98300.09;1597413;89;25694;-59
2022/08/28 10:52:09;;;;;;;10.63;9.00;;;;;;;29.48;55.15;98295.72;1597078;89;25741;-64
2022/08/28 10:54:47;;;;;;;9.65;8.50;;;;;;;29.24;54.49;98294.67;1597521;89;25645;-61
2022/08/28 10:57:29;;;;;;;11.15;8.70;;;;;;;29.12;54.64;98298.43;1597113;89;27452;-62
2022/08/28 10:59:57;;;;;;;9.98;8.98;;;;;;;29.16;54.32;98296.92;1596831;89;25686;-60
2022/08/28 11:02:26;;;;;;;10.08;9.08;;;;;;;29.10;55.58;98288.20;1597019;89;25445;-57
2022/08/28 11:04:55;;;;;;;10.98;9.38;;;;;;;29.07;55.51;98296.80;1596978;89;27832;-58
2022/08/28 11:07:30;;;;;;;10.90;9.50;;;;;;;29.10;55.28;98288.84;1597116;89;25618;-57
2022/08/28 11:10:04;;;;;;;11.33;9.90;;;;;;;29.13;55.21;98295.00;1597039;89;27550;-57
2022/08/28 11:12:39;;;;;;;12.45;10.50;;;;;;;29.15;55.26;98295.31;1584975;89;25525;-57
2022/08/28 11:15:30;;;;;;;11.38;9.73;;;;;;;29.06;55.47;98296.00;1597164;89;25521;-57
2022/08/28 11:18:17;;;;;;;12.23;10.93;;;;;;;29.00;55.95;98298.59;1597250;88;26164;-57
2022/08/28 11:21:09;;;;;;;12.90;10.53;;;;;;;28.98;55.86;98299.66;1595522;89;25689;-58
2022/08/28 11:23:43;;;;;;;11.55;10.20;;;;;;;28.94;55.33;98298.98;1595793;89;27518;-57
2022/08/28 11:26:13;;;;;;;10.98;9.88;;;;;;;28.87;55.71;98297.12;1597370;89;25742;-57
2022/08/28 11:28:46;;;;;;;13.80;11.03;;;;;;;28.80;55.26;98297.34;1597324;89;25642;-57
2022/08/28 11:31:18;;;;;;;12.03;10.60;;;;;;;28.63;55.78;98299.44;1597404;89;25717;-58
2022/08/28 11:33:51;;;;;;;13.25;11.85;;;;;;;28.41;56.08;98298.66;1597133;89;25622;-57
2022/08/28 11:36:28;;;;;;;12.00;10.78;;;;;;;28.32;56.83;98292.23;1597358;89;27501;-58
2022/08/28 11:39:02;;;;;;;14.98;11.90;;;;;;;28.40;56.37;98292.83;1597092;89;25682;-58
2022/08/28 11:41:34;;;;;;;12.30;10.58;;;;;;;28.33;56.64;98285.38;1597057;89;25449;-57
2022/08/28 11:44:11;;;;;;;13.68;11.30;;;;;;;28.32;56.44;98285.83;1597371;89;25841;-57
2022/08/28 11:46:50;;;;;;;12.03;10.82;;;;;;;28.22;56.39;98273.58;1597733;89;25457;-57
2022/08/28 11:49:31;;;;;;;13.70;11.60;;;;;;;28.32;57.75;98274.55;1596940;89;27545;-63
2022/08/28 11:52:42;;;;;;;15.10;11.43;;;;;;;28.42;56.73;98273.45;1597342;89;25626;-60
2022/08/28 11:55:28;;;;;;;13.90;11.00;;;;;;;28.40;56.78;98280.95;1597013;89;25729;-62